Date,TemperatureHighF,TemperatureAvgF,TemperatureLowF,DewpointHighF,DewpointAvgF,DewpointLowF,HumidityHigh,HumidityAvg,HumidityLow,PressureMaxIn,PressureMinIn,WindSpeedMaxMPH,WindSpeedAvgMPH,GustSpeedMaxMPH,PrecipitationSumIn
2013-3-1,52.7,40.8,27.9,49.5,37.4,27.6,100,89,56,30.55,30.50,10,2,10,0.00
2013-3-2,49.1,35.7,23.5,42.4,33.6,23.3,100,93,72,30.51,30.31,6,1,6,0.00
2013-3-3,55.0,40.1,27.7,42.4,36.3,27.1,100,88,52,30.33,30.07,8,1,8,0.00
2013-3-4,45.7,37.4,27.5,42.6,33.9,27.3,100,88,73,30.08,29.74,7,1,7,0.00
2013-3-5,52.3,40.2,26.1,43.0,37.3,25.8,100,90,64,29.75,29.57,12,5,12,0.00
2013-3-6,54.1,44.8,42.1,48.1,44.5,41.6,100,99,99,29.58,29.46,11,5,11,0.26
2013-3-7,58.8,46.1,44.4,58.6,45.8,41.6,99,99,99,29.46,29.29,13,7,13,0.28
2013-3-8,54.1,48.1,45.3,53.4,47.8,45.1,100,99,95,29.51,29.27,13,5,13,0.05
2013-3-9,48.9,44.1,39.7,48.7,43.9,37.3,99,99,99,29.71,29.49,17,7,17,0.02
2013-3-10,42.6,37.8,33.3,39.7,31.7,18.2,100,80,53,29.96,29.70,23,11,23,0.00
2013-3-11,39.0,31.5,27.1,32.3,25.7,16.3,100,80,50,30.11,29.95,21,8,21,0.01
2013-3-12,46.4,34.5,25.2,33.8,26.8,-23.1,100,74,10,30.14,30.01,11,3,11,0.00
2013-3-13,52.0,37.2,28.2,41.9,33.7,28.0,100,88,60,30.11,30.00,11,3,11,0.01
2013-3-14,49.3,38.0,26.4,45.4,36.4,26.2,100,94,80,30.12,29.74,16,5,16,0.01
2013-3-15,53.2,41.9,29.5,44.7,38.7,29.2,100,89,58,29.74,29.37,18,7,18,0.05
2013-3-16,58.3,38.7,27.9,45.6,32.7,27.6,100,82,39,29.37,29.29,10,2,10,0.00
2013-3-17,48.2,36.0,28.2,47.7,35.8,28.0,100,99,95,29.33,29.13,11,3,11,0.14
2013-3-18,48.7,38.2,34.3,43.7,37.4,34.1,100,97,83,29.48,29.20,10,4,10,0.15
2013-3-19,44.2,35.8,32.5,44.0,35.2,32.3,100,98,91,29.55,29.47,8,3,9,0.24
2013-3-20,48.2,38.3,32.5,47.9,37.0,32.3,100,95,76,29.90,29.55,6,2,6,0.00
2013-3-21,45.5,39.7,34.5,44.2,37.8,32.8,100,93,77,29.90,29.56,24,9,24,0.07
2013-3-22,52.3,40.8,31.5,52.3,40.6,29.1,100,99,96,29.68,29.47,19,10,19,0.21
2013-3-23,41.0,38.2,32.0,40.7,37.0,31.8,100,95,87,29.93,29.67,17,7,17,0.00
2013-3-24,37.9,35.2,32.9,33.7,30.0,23.5,92,81,71,30.07,29.92,16,8,16,0.00
2013-3-25,41.4,36.1,33.4,31.6,26.8,25.1,84,69,55,30.12,30.07,16,8,16,0.00
2013-3-26,42.1,34.2,31.5,38.8,31.0,25.1,97,88,68,30.12,30.04,16,5,16,0.02
2013-3-27,42.3,33.6,28.4,40.1,31.3,-18.5,100,92,10,30.05,30.00,18,3,18,0.05
2013-3-28,47.1,35.7,28.2,37.0,30.1,25.7,100,81,52,30.02,29.92,13,4,13,0.02
2013-3-29,46.4,37.4,33.3,29.5,25.7,23.5,75,63,45,29.93,29.84,12,5,12,0.00
2013-3-30,50.9,37.4,26.4,31.5,25.2,21.2,86,63,37,29.97,29.87,11,2,11,0.00
2013-3-31,44.4,36.6,28.2,31.5,28.0,23.5,85,71,57,29.95,29.83,14,4,14,0.00